Time;durP1;ratioP1;P1;durP2;ratioP2;P2;SDS_P1;SDS_P2;PMS_P1;PMS_P2;Temp;Humidity;BMP_temperature;BMP_pressure;BME280_temperature;BME280_humidity;BME280_pressure;Samples;Min_cycle;Max_cycle;Signal;HPM_P1;HPM_P2
2024/01/21 00:01:42;;;;;;;2.12;2.03;;;;;;;1.38;53.64;101433.44;4453022;32;33739;-88
2024/01/21 00:04:11;;;;;;;0.90;0.85;;;;;;;1.22;53.88;101435.72;4454327;32;33440;-88
2024/01/21 00:06:39;;;;;;;0.62;0.62;;;;;;;1.20;53.58;101429.63;4465974;32;33577;-88
2024/01/21 00:09:12;;;;;;;0.35;0.32;;;;;;;1.23;53.36;101440.06;4461269;32;33045;-88
2024/01/21 00:11:40;;;;;;;0.62;0.20;;;;;;;1.21;53.84;101436.56;4462085;32;33973;-88
2024/01/21 00:14:08;;;;;;;2.05;1.25;;;;;;;0.99;54.24;101434.34;4462377;32;32302;-88
2024/01/21 00:16:36;;;;;;;1.65;1.55;;;;;;;1.11;53.82;101438.97;4472430;32;33105;-88
2024/01/21 00:19:04;;;;;;;0.55;0.55;;;;;;;0.91;54.24;101434.22;4465161;32;33678;-88
2024/01/21 00:21:31;;;;;;;0.52;0.50;;;;;;;0.99;53.77;101422.22;4460256;32;32818;-88
2024/01/21 00:24:00;;;;;;;0.90;0.90;;;;;;;0.86;54.43;101420.22;4453500;32;32440;-90
2024/01/21 00:26:28;;;;;;;0.93;0.85;;;;;;;1.19;53.50;101408.78;4458013;32;33163;-90
2024/01/21 00:29:00;;;;;;;0.25;0.25;;;;;;;1.03;53.22;101424.06;4467446;32;33980;-90
2024/01/21 00:31:48;;;;;;;0.40;0.40;;;;;;;1.21;52.82;101422.69;4474070;31;32812;-90
2024/01/21 00:34:16;;;;;;;0.85;0.85;;;;;;;1.28;53.07;101415.03;4457559;32;32206;-90
2024/01/21 00:36:44;;;;;;;0.10;0.10;;;;;;;1.19;52.98;101430.47;4463929;32;32724;-90
2024/01/21 00:39:12;;;;;;;0.32;0.30;;;;;;;1.33;51.93;101433.34;4476783;32;32821;-90
2024/01/21 00:41:40;;;;;;;1.02;1.02;;;;;;;1.15;52.72;101444.25;4457784;32;32828;-89
2024/01/21 00:44:20;;;;;;;0.20;0.20;;;;;;;1.17;52.71;101432.16;4459058;32;31906;-90
2024/01/21 00:46:47;;;;;;;0.40;0.40;;;;;;;1.16;52.56;101443.41;4444814;32;33192;-90
2024/01/21 00:49:15;;;;;;;0.10;0.10;;;;;;;1.25;52.26;101440.13;4457576;32;33355;-90
2024/01/21 00:51:43;;;;;;;1.17;1.17;;;;;;;1.09;52.38;101449.31;4457687;32;34076;-90
2024/01/21 00:54:12;;;;;;;0.45;0.45;;;;;;;1.12;52.53;101454.59;4449316;32;33007;-90
2024/01/21 00:56:40;;;;;;;0.68;0.68;;;;;;;1.07;52.47;101455.34;4486491;32;33614;-90
2024/01/21 00:59:08;;;;;;;0.05;0.05;;;;;;;1.39;51.88;101450.81;4473145;32;33330;-90
2024/01/21 01:01:38;;;;;;;0.57;0.57;;;;;;;1.48;51.66;101448.41;4459797;32;32890;-90
2024/01/21 01:04:06;;;;;;;1.55;1.45;;;;;;;1.64;51.07;101449.56;4468681;32;33458;-90
2024/01/21 01:06:34;;;;;;;0.62;0.62;;;;;;;1.63;51.14;101450.41;4442100;32;34108;-90
2024/01/21 01:09:04;;;;;;;0.05;0.05;;;;;;;1.92;50.20;101450.94;4457868;32;34001;-89
2024/01/21 01:11:32;;;;;;;0.82;0.82;;;;;;;1.87;50.09;101444.78;4457605;32;33162;-90
2024/01/21 01:14:00;;;;;;;0.32;0.32;;;;;;;1.51;51.33;101448.44;4471804;32;31923;-90
2024/01/21 01:16:27;;;;;;;1.25;1.25;;;;;;;1.70;51.02;101441.84;4459857;32;32936;-90
2024/01/21 01:18:55;;;;;;;0.88;0.75;;;;;;;1.54;51.46;101449.38;4472881;32;32928;-90
2024/01/21 01:21:23;;;;;;;0.32;0.32;;;;;;;1.46;51.69;101444.88;4460176;32;33835;-89
2024/01/21 01:23:51;;;;;;;8.40;2.47;;;;;;;1.70;51.36;101450.53;4465880;32;31614;-90
2024/01/21 01:26:18;;;;;;;0.68;0.68;;;;;;;1.65;51.15;101449.56;4459994;32;32383;-90
2024/01/21 01:28:47;;;;;;;1.23;1.23;;;;;;;1.46;51.17;101452.66;4469860;32;32557;-89
2024/01/21 01:31:18;;;;;;;0.52;0.52;;;;;;;1.38;51.90;101449.06;4466147;32;33764;-88
2024/01/21 01:33:46;;;;;;;0.37;0.37;;;;;;;1.72;50.74;101440.16;4451259;32;32615;-88
2024/01/21 01:36:14;;;;;;;0.05;0.05;;;;;;;1.76;50.47;101442.84;4453843;32;33175;-89
2024/01/21 01:38:42;;;;;;;0.52;0.52;;;;;;;1.53;50.87;101446.75;4462849;32;32715;-89
2024/01/21 01:41:11;;;;;;;1.65;1.58;;;;;;;1.58;50.55;101452.94;4456181;32;32127;-89
2024/01/21 01:43:39;;;;;;;0.20;0.20;;;;;;;1.39;50.94;101448.22;4453874;32;31981;-89
2024/01/21 01:46:07;;;;;;;0.00;0.00;;;;;;;1.33;51.28;101445.47;4467866;32;33683;-89
2024/01/21 01:48:34;;;;;;;1.33;1.33;;;;;;;1.30;50.83;101438.47;4454503;32;33052;-89
2024/01/21 01:51:06;;;;;;;1.08;0.60;;;;;;;1.06;51.23;101441.47;4461579;32;34352;-89
2024/01/21 01:53:35;;;;;;;0.10;0.10;;;;;;;1.34;50.93;101434.22;4455996;32;33211;-89
2024/01/21 02:00:06;;;;;;;0.57;0.57;;;;;;;1.20;51.57;101427.00;4473858;32;33751;-89
2024/01/21 02:02:40;;;;;;;1.35;0.47;;;;;;;1.17;51.32;101429.53;4463552;32;33570;-88
2024/01/21 02:05:08;;;;;;;0.30;0.20;;;;;;;1.01;51.50;101437.88;4448474;32;32008;-89
2024/01/21 02:07:37;;;;;;;0.00;0.00;;;;;;;1.16;51.53;101445.12;4464672;32;33036;-89
2024/01/21 02:10:05;;;;;;;0.37;0.37;;;;;;;1.36;51.26;101437.72;4457061;32;33509;-90
2024/01/21 02:12:33;;;;;;;0.00;0.00;;;;;;;1.29;51.20;101436.72;4452971;32;33089;-89
2024/01/21 02:15:02;;;;;;;2.00;1.85;;;;;;;1.31;51.18;101441.97;4466266;32;32509;-89
2024/01/21 02:17:30;;;;;;;0.22;0.22;;;;;;;1.26;51.21;101444.47;4456707;32;32464;-89
2024/01/21 02:19:58;;;;;;;0.20;0.20;;;;;;;1.25;50.91;101445.31;4462646;32;33680;-89
2024/01/21 02:22:26;;;;;;;1.10;1.10;;;;;;;1.35;51.00;101451.59;4462178;32;33371;-89
2024/01/21 02:24:54;;;;;;;0.82;0.82;;;;;;;1.34;51.30;101449.84;4466637;32;33365;-89
2024/01/21 02:27:22;;;;;;;1.77;1.33;;;;;;;1.27;51.39;101454.91;4470171;32;34533;-89
2024/01/21 02:29:50;;;;;;;0.57;0.57;;;;;;;0.92;52.73;101454.16;4464180;32;33869;-88
2024/01/21 02:32:18;;;;;;;0.00;0.00;;;;;;;1.02;52.20;101455.25;4473156;32;34383;-87
2024/01/21 02:34:46;;;;;;;0.55;0.55;;;;;;;1.05;51.75;101457.03;4464653;32;33240;-86
2024/01/21 02:37:13;;;;;;;0.65;0.65;;;;;;;0.95;51.87;101450.72;4475265;32;34584;-87
2024/01/21 02:39:41;;;;;;;0.43;0.43;;;;;;;0.96;51.76;101452.50;4455099;32;32628;-89
2024/01/21 02:42:09;;;;;;;0.30;0.30;;;;;;;1.10;51.82;101451.09;4479158;32;34287;-89
2024/01/21 02:44:37;;;;;;;0.40;0.40;;;;;;;1.33;51.06;101448.06;4454856;32;32153;-90
2024/01/21 02:47:05;;;;;;;0.00;0.00;;;;;;;1.50;50.75;101447.56;4462207;32;32182;-89
2024/01/21 02:49:33;;;;;;;1.65;1.25;;;;;;;1.36;51.04;101453.34;4453437;32;32994;-89
2024/01/21 02:52:00;;;;;;;2.55;1.25;;;;;;;1.41;51.22;101456.91;4457384;32;32713;-89
2024/01/21 02:54:28;;;;;;;0.25;0.25;;;;;;;0.94;52.37;101460.25;4457100;32;32842;-89
2024/01/21 02:56:56;;;;;;;0.13;0.13;;;;;;;1.28;51.73;101467.09;4468064;32;33435;-89
2024/01/21 02:59:23;;;;;;;0.00;0.00;;;;;;;1.32;51.47;101467.13;4456952;32;33870;-88
2024/01/21 03:01:51;;;;;;;4.00;2.22;;;;;;;1.55;50.89;101465.88;4475495;32;32284;-86
2024/01/21 03:04:19;;;;;;;0.85;0.85;;;;;;;1.38;51.20;101472.50;4465313;32;32512;-85
2024/01/21 03:06:46;;;;;;;8.48;3.83;;;;;;;1.82;49.92;101475.06;4463804;32;32683;-85
2024/01/21 03:09:14;;;;;;;3.87;1.45;;;;;;;1.46;51.07;101486.50;4482026;32;33566;-86
2024/01/21 03:11:42;;;;;;;0.00;0.00;;;;;;;1.46;50.50;101481.31;4464286;32;32833;-86
2024/01/21 03:14:10;;;;;;;0.00;0.00;;;;;;;1.80;49.73;101477.63;4451131;32;33541;-86
2024/01/21 03:16:38;;;;;;;0.75;0.52;;;;;;;1.56;50.12;101482.38;4456991;32;34907;-86
2024/01/21 03:19:06;;;;;;;0.62;0.62;;;;;;;1.40;50.62;101494.22;4454441;32;33774;-87
2024/01/21 03:21:34;;;;;;;0.65;0.65;;;;;;;1.58;50.14;101489.38;4452350;32;32398;-87
2024/01/21 03:24:01;;;;;;;0.00;0.00;;;;;;;1.74;49.41;101491.41;4465352;32;33459;-87
2024/01/21 03:26:30;;;;;;;0.13;0.13;;;;;;;1.64;49.99;101493.81;4456833;32;34045;-86
2024/01/21 03:28:57;;;;;;;1.08;1.08;;;;;;;1.27;51.01;101493.06;4453661;32;33617;-86
2024/01/21 03:31:25;;;;;;;2.33;1.65;;;;;;;1.47;50.15;101498.66;4465664;32;33815;-87
2024/01/21 03:33:53;;;;;;;0.00;0.00;;;;;;;0.99;51.72;101496.78;4458980;32;32178;-87
2024/01/21 03:36:21;;;;;;;1.90;1.75;;;;;;;1.05;51.50;101496.94;4466308;32;33777;-86
2024/01/21 03:38:50;;;;;;;0.10;0.10;;;;;;;0.96;51.69;101494.13;4452019;32;33745;-87
2024/01/21 03:41:19;;;;;;;0.00;0.00;;;;;;;1.06;51.37;101490.87;4452145;32;33139;-86
2024/01/21 03:43:47;;;;;;;1.75;1.65;;;;;;;1.37;50.40;101486.31;4476962;32;33276;-86
2024/01/21 03:46:15;;;;;;;1.20;1.02;;;;;;;0.84;51.46;101496.44;4464028;32;32857;-88
2024/01/21 03:48:42;;;;;;;0.88;0.85;;;;;;;1.02;50.83;101494.25;4465798;32;34763;-88
2024/01/21 03:51:10;;;;;;;0.68;0.68;;;;;;;0.92;51.58;101494.91;4454754;32;32665;-88
2024/01/21 03:53:41;;;;;;;0.32;0.32;;;;;;;0.93;51.29;101501.84;4467557;32;34060;-87
2024/01/21 03:56:16;;;;;;;0.25;0.25;;;;;;;1.03;50.70;101507.28;4462368;32;32085;-87
2024/01/21 03:58:45;;;;;;;1.90;1.73;;;;;;;0.93;51.30;101512.25;4462896;32;32932;-87
2024/01/21 04:01:12;;;;;;;0.45;0.45;;;;;;;1.36;50.57;101506.25;4450704;32;33182;-87
2024/01/21 04:03:41;;;;;;;0.62;0.62;;;;;;;1.16;50.75;101511.03;4479706;32;33477;-87
2024/01/21 04:06:09;;;;;;;0.52;0.50;;;;;;;1.33;50.23;101511.44;4461939;32;34228;-88
2024/01/21 04:08:37;;;;;;;0.80;0.80;;;;;;;1.68;49.16;101499.13;4478468;32;34468;-87
2024/01/21 04:11:04;;;;;;;1.52;1.42;;;;;;;1.68;49.24;101506.94;4464288;32;33827;-88
2024/01/21 04:13:32;;;;;;;0.35;0.30;;;;;;;1.84;48.50;101499.41;4468419;32;34076;-86
2024/01/21 04:16:00;;;;;;;1.27;1.17;;;;;;;1.64;48.98;101502.50;4460649;32;33818;-88
2024/01/21 04:18:28;;;;;;;0.00;0.00;;;;;;;1.46;49.46;101516.03;4462189;32;33564;-87
2024/01/21 04:20:56;;;;;;;0.43;0.43;;;;;;;1.39;49.97;101510.69;4465852;32;32831;-88
2024/01/21 04:23:23;;;;;;;0.43;0.43;;;;;;;1.05;51.23;101512.53;4465532;32;32275;-88
2024/01/21 04:25:56;;;;;;;0.40;0.40;;;;;;;1.21;50.49;101509.44;4458155;32;33176;-88
2024/01/21 04:28:27;;;;;;;0.80;0.80;;;;;;;1.17;50.96;101509.31;4458271;32;32534;-88
2024/01/21 04:30:55;;;;;;;0.30;0.30;;;;;;;0.90;51.57;101504.37;4466958;32;32804;-88
2024/01/21 04:33:22;;;;;;;2.58;2.37;;;;;;;0.84;51.32;101509.44;4443406;32;32406;-88
2024/01/21 04:35:51;;;;;;;0.08;0.08;;;;;;;1.01;51.22;101513.31;4455027;32;32985;-88
2024/01/21 04:38:21;;;;;;;0.32;0.32;;;;;;;1.33;50.30;101507.91;4470140;32;32937;-88
2024/01/21 04:40:49;;;;;;;1.10;1.10;;;;;;;1.31;50.23;101507.91;4459864;32;34196;-88
2024/01/21 04:43:16;;;;;;;0.13;0.10;;;;;;;1.22;50.12;101498.16;4461773;32;32510;-87
2024/01/21 04:45:44;;;;;;;0.82;0.82;;;;;;;1.24;50.06;101499.09;4471820;32;33755;-87
2024/01/21 04:48:12;;;;;;;0.30;0.30;;;;;;;1.26;49.92;101494.78;4464017;32;33084;-87
2024/01/21 04:50:39;;;;;;;0.82;0.82;;;;;;;1.24;49.72;101501.69;4463989;32;34492;-87
2024/01/21 04:53:08;;;;;;;1.45;0.85;;;;;;;1.26;49.82;101507.78;4462647;32;32221;-87
2024/01/21 04:55:35;;;;;;;0.30;0.30;;;;;;;1.26;49.52;101505.19;4465569;32;33703;-86
2024/01/21 04:58:03;;;;;;;0.00;0.00;;;;;;;1.23;49.77;101515.53;4464518;32;32736;-87
2024/01/21 05:00:31;;;;;;;2.58;2.37;;;;;;;1.10;50.04;101508.31;4458427;32;33695;-86
2024/01/21 05:02:59;;;;;;;4.57;3.22;;;;;;;1.06;49.94;101514.28;4449138;32;33611;-86
2024/01/21 05:05:26;;;;;;;0.77;0.77;;;;;;;1.06;49.84;101508.22;4455978;32;33495;-87
2024/01/21 05:07:55;;;;;;;0.75;0.75;;;;;;;1.05;49.91;101504.75;4473144;32;32895;-86
2024/01/21 05:10:23;;;;;;;0.95;0.93;;;;;;;0.94;50.52;101514.00;4464239;32;33507;-86
2024/01/21 05:12:51;;;;;;;1.00;0.95;;;;;;;1.12;50.06;101510.94;4473970;32;32905;-86
2024/01/21 05:15:19;;;;;;;0.15;0.15;;;;;;;0.95;50.26;101520.97;4460827;32;33392;-87
2024/01/21 05:17:47;;;;;;;0.20;0.20;;;;;;;0.93;50.07;101520.06;4464639;32;33659;-86
2024/01/21 05:20:14;;;;;;;2.55;0.95;;;;;;;0.87;50.69;101525.13;4467430;32;33200;-86
2024/01/21 05:22:43;;;;;;;2.78;2.58;;;;;;;0.85;50.64;101532.88;4463032;32;31879;-86
2024/01/21 05:25:11;;;;;;;2.30;2.15;;;;;;;0.77;51.15;101540.50;4466550;32;33481;-86
2024/01/21 05:27:38;;;;;;;3.97;2.20;;;;;;;0.90;50.79;101545.97;4475335;32;34751;-87
2024/01/21 05:30:07;;;;;;;0.43;0.43;;;;;;;0.84;50.82;101543.25;4466533;32;33540;-88
2024/01/21 05:32:35;;;;;;;1.58;1.15;;;;;;;0.80;51.15;101554.41;4455360;32;33676;-88
2024/01/21 05:35:03;;;;;;;2.00;1.90;;;;;;;0.73;51.35;101554.28;4479514;32;33491;-88
2024/01/21 05:37:31;;;;;;;0.32;0.32;;;;;;;0.73;51.26;101562.06;4460200;32;33654;-88
2024/01/21 05:39:59;;;;;;;1.40;1.30;;;;;;;0.70;51.34;101564.59;4452357;32;33128;-89
2024/01/21 05:42:31;;;;;;;3.03;0.70;;;;;;;0.68;51.53;101561.09;4451967;32;33061;-86
2024/01/21 05:44:59;;;;;;;0.68;0.68;;;;;;;0.68;51.30;101566.28;4474979;32;33366;-86
2024/01/21 05:47:27;;;;;;;0.37;0.37;;;;;;;0.64;51.75;101558.38;4466719;32;33298;-86
2024/01/21 05:49:55;;;;;;;1.25;1.15;;;;;;;0.55;52.02;101568.53;4462597;32;33928;-85
2024/01/21 05:52:23;;;;;;;0.57;0.57;;;;;;;0.66;51.43;101573.16;4474397;32;32977;-86
2024/01/21 05:54:50;;;;;;;1.20;1.20;;;;;;;0.64;51.57;101564.44;4462442;32;34002;-86
2024/01/21 05:57:18;;;;;;;0.32;0.32;;;;;;;0.72;51.10;101573.31;4465249;32;34227;-86
2024/01/21 05:59:46;;;;;;;0.85;0.85;;;;;;;0.46;52.00;101572.66;4458775;32;32850;-87
2024/01/21 06:02:14;;;;;;;0.75;0.75;;;;;;;0.62;51.39;101571.34;4456961;32;33012;-88
2024/01/21 06:04:42;;;;;;;1.37;1.33;;;;;;;0.37;51.95;101575.00;4464487;32;33512;-87
2024/01/21 06:07:09;;;;;;;0.77;0.77;;;;;;;0.46;52.07;101579.56;4463669;32;33585;-88
2024/01/21 06:09:37;;;;;;;0.47;0.47;;;;;;;0.15;53.01;101585.69;4480349;32;33403;-87
2024/01/21 06:12:05;;;;;;;0.80;0.80;;;;;;;0.14;53.48;101587.41;4477276;32;32968;-86
2024/01/21 06:14:33;;;;;;;0.30;0.30;;;;;;;-0.14;53.96;101595.25;4461100;32;34113;-87
2024/01/21 06:17:02;;;;;;;1.08;1.08;;;;;;;-0.06;53.60;101599.81;4469362;32;33392;-87
2024/01/21 06:19:30;;;;;;;0.37;0.37;;;;;;;-0.02;53.70;101600.78;4463433;32;34451;-86
2024/01/21 06:21:58;;;;;;;2.55;2.42;;;;;;;0.01;53.81;101600.00;4465010;32;32390;-87
2024/01/21 06:24:26;;;;;;;0.05;0.05;;;;;;;-0.07;53.72;101610.19;4452243;32;32720;-86
2024/01/21 06:26:54;;;;;;;1.00;1.00;;;;;;;-0.01;54.00;101612.94;4450644;32;34291;-88
2024/01/21 06:29:21;;;;;;;1.75;1.35;;;;;;;-0.08;54.06;101605.81;4458623;32;34737;-87
2024/01/21 06:31:49;;;;;;;0.75;0.75;;;;;;;0.24;53.18;101602.41;4478774;32;32587;-87
2024/01/21 06:34:17;;;;;;;2.65;2.15;;;;;;;0.21;52.82;101617.03;4461715;32;34378;-86
2024/01/21 06:36:45;;;;;;;2.42;0.82;;;;;;;-0.06;53.64;101614.53;4474981;32;33408;-86
2024/01/21 06:39:12;;;;;;;2.12;2.03;;;;;;;-0.09;53.64;101610.16;4463390;32;34267;-87
2024/01/21 06:41:40;;;;;;;0.45;0.45;;;;;;;-0.04;53.33;101607.69;4457641;32;32995;-87
2024/01/21 06:44:08;;;;;;;1.45;1.35;;;;;;;-0.32;54.51;101612.06;4461789;32;33896;-87
2024/01/21 06:46:36;;;;;;;0.57;0.57;;;;;;;-0.26;54.16;101613.97;4471332;32;33611;-87
2024/01/21 06:49:04;;;;;;;1.27;0.57;;;;;;;-0.26;54.62;101614.84;4452378;32;33047;-87
2024/01/21 06:51:42;;;;;;;0.03;0.03;;;;;;;-0.23;54.94;101620.97;4462744;32;32643;-87
2024/01/21 06:54:11;;;;;;;0.45;0.45;;;;;;;-0.05;54.60;101617.19;4465924;32;34634;-87
2024/01/21 06:56:38;;;;;;;0.20;0.20;;;;;;;0.04;54.64;101616.53;4473108;32;33741;-87
2024/01/21 06:59:06;;;;;;;0.80;0.80;;;;;;;0.15;54.29;101609.94;4466028;32;32982;-87
2024/01/21 07:01:34;;;;;;;0.22;0.22;;;;;;;0.16;53.93;101611.69;4460343;32;32688;-87
2024/01/21 07:04:02;;;;;;;1.10;0.90;;;;;;;0.00;54.38;101619.91;4465223;32;35088;-87
2024/01/21 07:06:30;;;;;;;0.00;0.00;;;;;;;-0.21;54.79;101624.47;4454269;32;33299;-87
2024/01/21 07:08:58;;;;;;;0.62;0.62;;;;;;;-0.12;54.58;101627.34;4476487;32;33433;-88
2024/01/21 07:11:26;;;;;;;0.82;0.82;;;;;;;-0.13;54.62;101626.47;4463403;32;32415;-88
2024/01/21 07:13:54;;;;;;;0.55;0.55;;;;;;;-0.03;54.88;101619.81;4456214;32;33399;-87
2024/01/21 07:16:21;;;;;;;2.22;1.85;;;;;;;-0.07;54.68;101613.66;4471585;32;33344;-88
2024/01/21 07:18:49;;;;;;;2.85;2.50;;;;;;;0.15;54.62;101615.12;4468287;32;33124;-92
2024/01/21 07:21:30;;;;;;;1.00;1.00;;;;;;;0.22;54.16;101624.84;4424894;32;32670;-87
2024/01/21 07:23:58;;;;;;;2.53;1.98;;;;;;;-0.09;55.13;101627.44;4425352;32;33288;-88
2024/01/21 07:26:27;;;;;;;1.77;1.67;;;;;;;0.04;54.85;101637.31;4425319;32;32972;-90
2024/01/21 07:28:56;;;;;;;0.57;0.57;;;;;;;0.41;53.83;101633.16;4418328;32;33372;-87
2024/01/21 07:31:24;;;;;;;0.00;0.00;;;;;;;0.43;53.74;101631.50;4422540;32;33196;-87
2024/01/21 07:33:52;;;;;;;0.20;0.20;;;;;;;0.52;53.20;101634.31;4415936;32;35122;-86
2024/01/21 07:36:21;;;;;;;0.05;0.05;;;;;;;0.61;53.16;101631.94;4413350;32;33950;-87
2024/01/21 07:38:48;;;;;;;1.08;1.08;;;;;;;0.84;52.68;101631.66;4420105;32;33266;-88
2024/01/21 07:41:16;;;;;;;1.15;1.15;;;;;;;0.88;52.77;101634.38;4430517;32;32800;-87
2024/01/21 07:43:44;;;;;;;0.75;0.75;;;;;;;1.16;52.00;101641.13;4406257;32;33143;-87
2024/01/21 07:46:13;;;;;;;0.30;0.30;;;;;;;1.10;52.30;101633.19;4427334;32;32904;-87
2024/01/21 07:48:41;;;;;;;0.85;0.85;;;;;;;1.09;52.25;101633.13;4420953;32;33101;-86
2024/01/21 07:51:11;;;;;;;1.58;1.48;;;;;;;1.33;51.70;101635.44;4429628;32;33598;-88
2024/01/21 07:53:39;;;;;;;0.05;0.05;;;;;;;1.41;51.62;101644.31;4429738;32;31966;-87
2024/01/21 07:56:07;;;;;;;0.52;0.52;;;;;;;1.57;51.08;101641.22;4425607;32;34881;-88
2024/01/21 07:58:35;;;;;;;0.62;0.62;;;;;;;1.82;50.63;101639.16;4415096;32;33452;-87
2024/01/21 08:01:09;;;;;;;0.10;0.10;;;;;;;1.94;50.42;101642.00;4431818;32;32988;-88
2024/01/21 08:03:38;;;;;;;0.00;0.00;;;;;;;1.98;50.51;101643.84;4441540;32;33114;-87
2024/01/21 08:06:08;;;;;;;0.08;0.08;;;;;;;2.10;50.15;101636.28;4417175;32;35210;-90
2024/01/21 08:08:36;;;;;;;1.15;0.70;;;;;;;2.15;49.36;101637.25;4436534;32;32779;-88
2024/01/21 08:11:05;;;;;;;0.30;0.30;;;;;;;2.23;49.17;101640.91;4426561;32;32525;-91
2024/01/21 08:13:33;;;;;;;0.03;0.03;;;;;;;2.58;48.80;101640.69;4407828;32;33582;-90
2024/01/21 08:16:01;;;;;;;1.52;1.42;;;;;;;2.50;49.05;101637.03;4421960;32;32357;-89
2024/01/21 08:18:29;;;;;;;1.33;1.23;;;;;;;2.61;48.68;101642.44;4426428;32;33021;-89
2024/01/21 08:20:58;;;;;;;0.45;0.45;;;;;;;2.92;47.78;101643.87;4427979;32;32876;-89
2024/01/21 08:23:26;;;;;;;0.35;0.35;;;;;;;3.29;46.70;101645.34;4420167;32;33823;-89
2024/01/21 08:25:55;;;;;;;5.62;1.87;;;;;;;3.17;47.07;101643.41;4442063;32;33747;-90
2024/01/21 08:28:23;;;;;;;0.20;0.20;;;;;;;3.06;47.60;101638.03;4425794;32;33601;-89
2024/01/21 08:30:51;;;;;;;0.52;0.52;;;;;;;3.17;47.24;101643.41;4419692;32;32226;-90
2024/01/21 08:33:19;;;;;;;0.40;0.40;;;;;;;3.42;45.90;101651.63;4422207;32;33006;-89
2024/01/21 08:35:48;;;;;;;0.10;0.10;;;;;;;3.15;46.94;101655.56;4427244;32;33625;-89
2024/01/21 08:38:18;;;;;;;0.88;0.88;;;;;;;3.44;46.14;101665.59;4439463;32;33343;-90
2024/01/21 08:40:46;;;;;;;1.92;1.55;;;;;;;3.46;46.43;101671.72;4420498;32;31796;-90
2024/01/21 08:43:13;;;;;;;0.22;0.22;;;;;;;3.55;46.24;101669.25;4419829;32;34296;-90
2024/01/21 08:45:41;;;;;;;0.43;0.35;;;;;;;3.98;45.33;101656.78;4429877;32;32666;-90
2024/01/21 08:48:09;;;;;;;0.70;0.30;;;;;;;4.00;45.47;101661.19;4422158;32;32371;-90
2024/01/21 08:50:37;;;;;;;6.12;1.77;;;;;;;4.13;45.30;101670.06;4408424;32;33521;-90
2024/01/21 08:53:05;;;;;;;2.15;1.75;;;;;;;4.47;44.69;101665.22;4423731;32;33255;-90
2024/01/21 08:55:33;;;;;;;1.92;1.45;;;;;;;4.63;43.44;101672.38;4416575;32;32510;-90
2024/01/21 08:58:02;;;;;;;0.20;0.20;;;;;;;4.70;43.50;101678.53;4427409;32;33025;-90
2024/01/21 09:00:30;;;;;;;1.95;1.85;;;;;;;4.59;44.18;101681.03;4420167;32;33237;-90
2024/01/21 09:02:58;;;;;;;0.82;0.80;;;;;;;5.01;43.22;101680.59;4416616;32;32354;-90
2024/01/21 09:05:28;;;;;;;0.43;0.43;;;;;;;5.02;41.94;101681.47;4433973;32;33219;-91
2024/01/21 09:07:56;;;;;;;3.15;0.93;;;;;;;4.81;42.92;101697.84;4427694;32;33978;-91
2024/01/21 09:10:24;;;;;;;0.57;0.57;;;;;;;4.88;43.64;101695.28;4412898;32;32225;-91
2024/01/21 09:12:52;;;;;;;0.65;0.65;;;;;;;5.07;43.45;101695.47;4429330;32;34175;-90
2024/01/21 09:15:21;;;;;;;0.93;0.93;;;;;;;5.23;43.02;101697.38;4421227;32;33902;-91
2024/01/21 09:17:50;;;;;;;0.55;0.55;;;;;;;5.31;42.33;101700.91;4433836;32;33800;-91
2024/01/21 09:20:19;;;;;;;0.62;0.32;;;;;;;5.34;42.82;101698.34;4416772;32;31985;-91
2024/01/21 09:22:46;;;;;;;2.35;1.92;;;;;;;5.60;42.01;101700.25;4431962;32;33926;-92
2024/01/21 09:25:15;;;;;;;1.45;1.35;;;;;;;5.63;42.06;101693.31;4394707;32;33121;-92
2024/01/21 09:27:45;;;;;;;0.85;0.77;;;;;;;5.51;42.36;101692.38;4426572;32;33828;-91
2024/01/21 09:30:33;;;;;;;2.35;1.60;;;;;;;5.79;41.99;101691.69;4435555;32;33521;-92
2024/01/21 09:33:02;;;;;;;0.75;0.75;;;;;;;6.05;40.72;101690.97;4431874;32;33182;-92
2024/01/21 09:35:50;;;;;;;1.42;1.40;;;;;;;5.75;41.93;101703.00;4408600;32;33201;-92
2024/01/21 09:38:21;;;;;;;3.12;2.30;;;;;;;6.03;40.38;101693.59;4407899;32;32736;-91
2024/01/21 09:41:32;;;;;;;1.35;1.25;;;;;;;5.93;41.15;101697.00;4418413;32;32795;-91
2024/01/21 09:44:02;;;;;;;0.00;0.00;;;;;;;6.12;39.53;101697.97;4416540;32;32837;-91
2024/01/21 09:46:32;;;;;;;1.20;1.20;;;;;;;6.37;39.65;101693.75;4431228;32;34402;-93
2024/01/21 09:49:13;;;;;;;0.17;0.17;;;;;;;6.13;40.84;101699.75;4424830;32;33254;-93
2024/01/21 09:51:55;;;;;;;1.23;1.08;;;;;;;6.13;40.61;101699.75;4415704;32;32378;-93
2024/01/21 09:54:46;;;;;;;0.50;0.50;;;;;;;6.23;39.79;101700.69;4364957;32;33224;-92
2024/01/21 09:57:14;;;;;;;0.62;0.62;;;;;;;5.95;40.48;101702.28;4370704;32;33643;-92
2024/01/21 10:00:06;;;;;;;0.10;0.10;;;;;;;5.64;41.21;101704.66;4372783;32;33049;-92
2024/01/21 10:02:48;;;;;;;1.58;1.48;;;;;;;5.67;41.34;101709.94;4387416;32;31864;-93
2024/01/21 10:05:27;;;;;;;0.47;0.47;;;;;;;5.79;40.81;101704.78;4389799;32;32606;-93
2024/01/21 10:08:18;;;;;;;0.70;0.65;;;;;;;5.41;40.54;101709.72;4396159;32;34067;-92
2024/01/21 10:11:03;;;;;;;1.35;1.25;;;;;;;5.31;41.80;101702.66;4390331;32;32835;-93
2024/01/21 10:13:56;;;;;;;0.73;0.73;;;;;;;5.54;40.81;101702.84;4386609;32;33185;-89
2024/01/21 10:16:40;;;;;;;0.77;0.77;;;;;;;5.82;40.76;101709.16;4375876;32;32628;-93
2024/01/21 10:19:33;;;;;;;0.17;0.17;;;;;;;6.10;40.31;101692.75;4371744;32;32686;-93
2024/01/21 10:22:14;;;;;;;0.08;0.08;;;;;;;6.01;39.88;101700.56;4385785;32;33263;-93
2024/01/21 10:25:08;;;;;;;0.65;0.52;;;;;;;5.89;40.49;101703.09;4373603;32;32985;-93
2024/01/21 10:27:52;;;;;;;2.37;1.67;;;;;;;5.43;40.50;101699.28;4383877;32;33994;-93
2024/01/21 10:30:44;;;;;;;2.25;2.08;;;;;;;5.11;41.94;101710.34;4396711;32;33576;-93
2024/01/21 10:33:24;;;;;;;0.55;0.55;;;;;;;5.35;41.34;101707.94;4382004;32;33358;-93
2024/01/21 10:36:15;;;;;;;1.95;0.47;;;;;;;5.03;42.14;101701.53;4393759;32;31629;-92
2024/01/21 10:38:55;;;;;;;0.50;0.50;;;;;;;5.24;41.53;101693.00;4404305;32;33585;-92
2024/01/21 10:41:46;;;;;;;1.40;0.52;;;;;;;5.59;41.15;101695.91;4383120;32;32562;-92
2024/01/21 10:44:27;;;;;;;1.27;1.17;;;;;;;5.55;40.78;101704.59;4373969;32;33375;-93
2024/01/21 10:47:20;;;;;;;0.32;0.32;;;;;;;4.93;42.07;101702.31;4352871;32;32450;-93
2024/01/21 10:50:01;;;;;;;1.30;1.25;;;;;;;5.46;41.48;101702.81;4369695;32;32961;-94
2024/01/21 10:52:52;;;;;;;0.35;0.35;;;;;;;5.88;41.11;101704.81;4381758;32;34193;-93
2024/01/21 10:55:32;;;;;;;1.00;1.00;;;;;;;6.07;40.65;101708.44;4381340;32;35108;-94
2024/01/21 10:58:26;;;;;;;1.90;1.40;;;;;;;5.96;40.07;101704.03;4362859;32;33895;-94
2024/01/21 11:01:06;;;;;;;2.12;1.48;;;;;;;5.68;40.65;101705.56;4376939;32;32622;-93
2024/01/21 11:04:08;;;;;;;0.73;0.73;;;;;;;5.74;41.71;101706.47;4372270;32;33054;-93
2024/01/21 11:06:51;;;;;;;9.13;1.90;;;;;;;5.94;40.81;101708.41;4362752;32;33477;-92
2024/01/21 11:09:42;;;;;;;0.85;0.85;;;;;;;5.80;41.01;101705.66;4388870;32;31766;-93
2024/01/21 11:12:22;;;;;;;1.85;1.35;;;;;;;6.03;40.49;101706.72;4366411;32;34207;-93
2024/01/21 11:15:29;;;;;;;0.37;0.37;;;;;;;5.74;41.23;101706.47;4409425;32;32987;-93
2024/01/21 11:18:10;;;;;;;1.35;1.08;;;;;;;5.86;40.62;101706.56;4377129;32;32704;-93
2024/01/21 11:21:01;;;;;;;3.50;3.10;;;;;;;6.08;40.81;101698.88;4386181;32;32105;-93
2024/01/21 11:23:42;;;;;;;0.50;0.50;;;;;;;6.59;40.22;101685.03;4376375;32;33537;-94
2024/01/21 11:26:36;;;;;;;2.08;1.87;;;;;;;6.48;39.75;101693.78;4377459;32;33542;-92
2024/01/21 11:29:24;;;;;;;1.35;0.45;;;;;;;5.94;41.67;101690.06;4374958;32;32483;-94
2024/01/21 11:32:21;;;;;;;2.10;1.55;;;;;;;6.51;39.48;101688.53;4379254;32;32401;-93
2024/01/21 11:35:07;;;;;;;0.68;0.68;;;;;;;6.67;39.61;101683.31;4406856;32;34481;-93
2024/01/21 11:38:11;;;;;;;1.33;0.85;;;;;;;6.82;38.70;101687.72;4373860;32;33934;-93
2024/01/21 11:41:04;;;;;;;2.12;2.03;;;;;;;7.00;38.25;101680.75;4376510;32;33745;-93
2024/01/21 11:43:55;;;;;;;1.30;0.98;;;;;;;7.13;38.20;101677.28;4377341;32;33553;-93
2024/01/21 11:46:35;;;;;;;1.42;1.35;;;;;;;6.71;39.31;101684.22;4425315;32;34094;-93
2024/01/21 11:49:26;;;;;;;2.00;1.35;;;;;;;6.57;39.02;101683.31;4406739;32;34032;-93
2024/01/21 11:52:07;;;;;;;0.73;0.73;;;;;;;6.15;39.01;101685.78;4397832;32;32737;-93
2024/01/21 11:54:59;;;;;;;6.03;1.87;;;;;;;6.08;39.87;101685.75;4378887;32;31891;-93
2024/01/21 11:57:39;;;;;;;1.08;1.02;;;;;;;5.87;41.00;101692.56;4383173;32;32984;-93